TimeMST,TemperatureF,Dew PointF,Humidity,Sea Level PressureIn,VisibilityMPH,Wind Direction,Wind SpeedMPH,Gust SpeedMPH,PrecipitationIn,Events,Conditions,WindDirDegrees,DateUTC
12:51 AM,27.0,23.0,85,29.91,10.0,Calm,Calm,-,N/A,,Overcast,0,2012-12-31 07:51:00
1:51 AM,28.9,23.0,78,29.91,10.0,Calm,Calm,-,N/A,,Scattered Clouds,0,2012-12-31 08:51:00
2:51 AM,28.0,21.9,78,29.94,10.0,ESE,4.6,-,N/A,,Mostly Cloudy,110,2012-12-31 09:51:00
3:51 AM,28.0,19.9,72,29.95,10.0,East,3.5,-,N/A,,Mostly Cloudy,80,2012-12-31 10:51:00
4:51 AM,28.0,19.9,72,29.96,10.0,NNE,8.1,-,N/A,,Mostly Cloudy,30,2012-12-31 11:51:00
5:51 AM,30.0,19.0,64,29.98,10.0,Calm,Calm,-,N/A,,Scattered Clouds,0,2012-12-31 12:51:00
6:51 AM,27.0,18.0,69,30.02,10.0,East,5.8,-,N/A,,Clear,90,2012-12-31 13:51:00
7:51 AM,24.1,17.1,75,30.07,10.0,East,6.9,-,N/A,,Clear,90,2012-12-31 14:51:00
8:51 AM,30.0,18.0,61,30.08,10.0,East,3.5,-,N/A,,Unknown,80,2012-12-31 15:51:00
9:51 AM,34.0,19.0,54,30.10,10.0,NNE,9.2,-,N/A,,Clear,20,2012-12-31 16:51:00
10:51 AM,36.0,18.0,48,30.12,10.0,NE,8.1,-,N/A,,Clear,40,2012-12-31 17:51:00
11:51 AM,39.0,16.0,39,30.11,10.0,North,13.8,18.4,N/A,,Clear,10,2012-12-31 18:51:00
12:51 PM,39.9,14.0,35,30.08,10.0,North,16.1,21.9,N/A,,Clear,350,2012-12-31 19:51:00
1:51 PM,41.0,12.9,32,30.06,10.0,North,12.7,19.6,N/A,,Clear,10,2012-12-31 20:51:00
2:51 PM,42.8,12.2,29,30.09,10.0,North,13.8,-,N/A,,Clear,10,2012-12-31 21:51:00
3:51 PM,41.0,12.9,32,30.07,10.0,North,9.2,-,N/A,,Clear,10,2012-12-31 22:51:00
4:51 PM,39.9,12.9,33,30.09,10.0,North,10.4,-,N/A,,Clear,360,2012-12-31 23:51:00
5:51 PM,33.1,12.9,43,30.11,10.0,ENE,3.5,-,N/A,,Clear,70,2013-01-01 00:51:00
6:51 PM,30.0,12.9,49,30.14,10.0,NE,4.6,-,N/A,,Clear,50,2013-01-01 01:51:00
7:51 PM,30.0,12.9,49,30.15,10.0,East,6.9,-,N/A,,Clear,100,2013-01-01 02:51:00
8:51 PM,26.1,12.9,58,30.16,10.0,East,5.8,-,N/A,,Clear,100,2013-01-01 03:51:00
9:51 PM,25.0,14.0,63,30.16,10.0,ESE,8.1,-,N/A,,Clear,120,2013-01-01 04:51:00
10:51 PM,25.0,14.0,63,30.17,-9999.0,East,5.8,-,N/A,,Clear,100,2013-01-01 05:51:00
11:51 PM,26.1,14.0,60,30.17,10.0,ESE,9.2,-,N/A,,Clear,110,2013-01-01 06:51:00